Observation data for Pampa on 06/16/2019      Previous  Date  Next       Current Mesonet Observations  Soil Data  Daily Summary Page  Observations in Plain Language
KPMS 160500Z 33017G22KT 17/12 A2991 RMK A01 T01680119  RH  076%=      5-min Rain = 0
KPMS 160505Z 33018G23KT 17/12 A2991 RMK A01 T01700119  RH  075%=      5-min Rain = 0
KPMS 160510Z 34018G23KT 17/12 A2991 RMK A01 T01700119  RH  075%=      5-min Rain = 0
KPMS 160515Z 34016KT 17/12 A2991 RMK A01 T01690120  RH  076%=      5-min Rain = 0
KPMS 160520Z 33014G19KT 17/12 A2991 RMK A01 T01680121  RH  077%=      5-min Rain = 0
KPMS 160525Z 34015KT 17/12 A2991 RMK A01 T01680122  RH  077%=      5-min Rain = 0
KPMS 160530Z 34017KT 17/12 A2991 RMK A01 T01680122  RH  077%=      5-min Rain = 0
KPMS 160535Z 34017KT 17/12 A2991 RMK A01 T01700122  RH  076%=      5-min Rain = 0
KPMS 160540Z 33017KT 17/12 A2992 RMK A01 T01720121  RH  075%=      5-min Rain = 0
KPMS 160545Z 33016KT 17/12 A2992 RMK A01 T01710121  RH  076%=      5-min Rain = 0
KPMS 160550Z 33015KT 17/12 A2992 RMK A01 T01720120  RH  074%=      5-min Rain = 0
KPMS 160555Z 33014KT 17/12 A2992 RMK A01 T01730119  RH  074%=      5-min Rain = 0
KPMS 160600Z 34014KT 17/12 A2992 RMK A01 T01730120  RH  074%=      5-min Rain = 0
KPMS 160605Z 34013G19KT 17/12 A2992 RMK A01 T01710121  RH  075%=      5-min Rain = 0
KPMS 160610Z 34014KT 17/12 A2992 RMK A01 T01710120  RH  075%=      5-min Rain = 0
KPMS 160615Z 34013KT 17/12 A2992 RMK A01 T01720120  RH  074%=      5-min Rain = 0
KPMS 160620Z 34012KT 17/12 A2992 RMK A01 T01710120  RH  075%=      5-min Rain = 0
KPMS 160625Z 34013KT 17/12 A2992 RMK A01 T01700120  RH  075%=      5-min Rain = 0
KPMS 160630Z 35012KT 17/12 A2992 RMK A01 T01690121  RH  076%=      5-min Rain = 0
KPMS 160635Z 35013KT 17/12 A2992 RMK A01 T01700120  RH  075%=      5-min Rain = 0
KPMS 160640Z 35015KT 17/12 A2992 RMK A01 T01730118  RH  073%=      5-min Rain = 0
KPMS 160645Z 35013G18KT 17/12 A2992 RMK A01 T01730119  RH  073%=      5-min Rain = 0
KPMS 160650Z 35013G18KT 17/12 A2992 RMK A01 T01720121  RH  074%=      5-min Rain = 0
KPMS 160655Z 35012G17KT 17/12 A2992 RMK A01 T01730122  RH  075%=      5-min Rain = 0
KPMS 160700Z 35013KT 17/12 A2993 RMK A01 T01730122  RH  075%=      5-min Rain = 0
KPMS 160705Z 33010KT 17/12 A2993 RMK A01 T01720124  RH  076%=      5-min Rain = 0
KPMS 160710Z 35011G16KT 17/13 A2993 RMK A01 T01720125  RH  077%=      5-min Rain = 0
KPMS 160715Z 35011KT 17/13 A2993 RMK A01 T01710126  RH  077%=      5-min Rain = 0
KPMS 160720Z 34010KT 17/13 A2992 RMK A01 T01700126  RH  078%=      5-min Rain = 0
KPMS 160725Z 32010KT 17/13 A2992 RMK A01 T01690126  RH  079%=      5-min Rain = 0
KPMS 160730Z 31010KT 17/13 A2992 RMK A01 T01700126  RH  078%=      5-min Rain = 0
KPMS 160735Z 32010KT 17/13 A2992 RMK A01 T01700126  RH  078%=      5-min Rain = 0
KPMS 160740Z 34013KT 17/13 A2992 RMK A01 T01710125  RH  077%=      5-min Rain = 0
KPMS 160745Z 34012G17KT 17/12 A2992 RMK A01 T01710124  RH  077%=      5-min Rain = 0
KPMS 160750Z 34012KT 17/13 A2992 RMK A01 T01700125  RH  078%=      5-min Rain = 0
KPMS 160755Z 34012KT 17/12 A2991 RMK A01 T01700124  RH  077%=      5-min Rain = 0
KPMS 160800Z 33013KT 17/12 A2992 RMK A01 T01710124  RH  077%=      5-min Rain = 0
KPMS 160805Z 35011KT 17/13 A2991 RMK A01 T01700125  RH  078%=      5-min Rain = 0
KPMS 160810Z 35010KT 17/13 A2991 RMK A01 T01690126  RH  079%=      5-min Rain = 0
KPMS 160815Z 36008KT 17/13 A2991 RMK A01 T01690126  RH  078%=      5-min Rain = 0
KPMS 160820Z 35008KT 17/13 A2991 RMK A01 T01690126  RH  079%=      5-min Rain = 0
KPMS 160825Z 01009KT 17/13 A2991 RMK A01 T01680127  RH  080%=      5-min Rain = 0
KPMS 160830Z 01006KT 17/13 A2991 RMK A01 T01680128  RH  080%=      5-min Rain = 0
KPMS 160835Z 01006KT 17/13 A2992 RMK A01 T01670128  RH  081%=      5-min Rain = 0
KPMS 160840Z 02007KT 17/13 A2992 RMK A01 T01650129  RH  082%=      5-min Rain = 0
KPMS 160845Z 35006KT 16/13 A2993 RMK A01 T01640130  RH  084%=      5-min Rain = 0
KPMS 160850Z 35007KT 16/13 A2994 RMK A01 T01630131  RH  085%=      5-min Rain = 0
KPMS 160855Z 34007KT 16/13 A2994 RMK A01 T01630131  RH  085%=      5-min Rain = 0
KPMS 160900Z 32007KT 16/13 A2994 RMK A01 T01630131  RH  084%=      5-min Rain = 0
KPMS 160905Z 33006KT 16/13 A2994 RMK A01 T01640131  RH  084%=      5-min Rain = 0
KPMS 160910Z 34007KT 16/13 A2994 RMK A01 T01640131  RH  085%=      5-min Rain = 0
KPMS 160915Z 36004KT 17/13 A2994 RMK A01 T01650130  RH  083%=      5-min Rain = 0
KPMS 160920Z 14002KT 16/13 A2995 RMK A01 T01640132  RH  085%=      5-min Rain = 0
KPMS 160925Z 17005KT 16/14 A2995 RMK A01 T01610136  RH  089%=      5-min Rain = 0
KPMS 160930Z 18004KT 16/13 A2994 RMK A01 T01610133  RH  087%=      5-min Rain = 0
KPMS 160935Z 22002KT 16/13 A2995 RMK A01 T01630133  RH  086%=      5-min Rain = 0
KPMS 160940Z 26003KT 16/13 A2995 RMK A01 T01630133  RH  086%=      5-min Rain = 0
KPMS 160945Z 25004KT 16/13 A2995 RMK A01 T01640134  RH  086%=      5-min Rain = 0
KPMS 160950Z 22004KT 16/14 A2995 RMK A01 T01630135  RH  087%=      5-min Rain = 0
KPMS 160955Z 20005KT 16/14 A2995 RMK A01 T01630136  RH  088%=      5-min Rain = 0
KPMS 161000Z 21005KT 16/14 A2995 RMK A01 T01620138  RH  089%=      5-min Rain = 0
KPMS 161005Z 22004KT 16/14 A2995 RMK A01 T01620138  RH  089%=      5-min Rain = 0
KPMS 161010Z 27004KT 16/14 A2995 RMK A01 T01620138  RH  089%=      5-min Rain = 0
KPMS 161015Z 28006KT 16/14 A2995 RMK A01 T01630139  RH  090%=      5-min Rain = 0
KPMS 161020Z 28006KT 16/14 A2995 RMK A01 T01640140  RH  089%=      5-min Rain = 0
KPMS 161025Z 27006KT 16/14 A2995 RMK A01 T01640141  RH  090%=      5-min Rain = 0.01
KPMS 161030Z 27006KT 17/14 A2995 RMK A01 T01650142  RH  090%=      5-min Rain = 0
KPMS 161035Z 28005KT 16/14 A2995 RMK A01 T01640141  RH  090%=      5-min Rain = 0
KPMS 161040Z 28006KT 16/14 A2995 RMK A01 T01640141  RH  090%=      5-min Rain = 0
KPMS 161045Z 27006KT 16/14 A2995 RMK A01 T01640141  RH  091%=      5-min Rain = 0
KPMS 161050Z 27006KT 16/14 A2996 RMK A01 T01640142  RH  091%=      5-min Rain = 0
KPMS 161055Z 28005KT 16/14 A2996 RMK A01 T01640143  RH  091%=      5-min Rain = 0
KPMS 161100Z 28005KT 16/14 A2996 RMK A01 T01630143  RH  092%=      5-min Rain = 0
KPMS 161105Z 28006KT 16/14 A2995 RMK A01 T01630143  RH  092%=      5-min Rain = 0
KPMS 161110Z 29006KT 16/14 A2996 RMK A01 T01620143  RH  093%=      5-min Rain = 0
KPMS 161115Z 29005KT 16/14 A2995 RMK A01 T01610143  RH  093%=      5-min Rain = 0
KPMS 161120Z 29004KT 16/14 A2995 RMK A01 T01610144  RH  094%=      5-min Rain = 0
KPMS 161125Z 29006KT 16/14 A2994 RMK A01 T01600144  RH  094%=      5-min Rain = 0
KPMS 161130Z 28005KT 16/14 A2993 RMK A01 T01610144  RH  094%=      5-min Rain = 0
KPMS 161135Z 27005KT 16/15 A2993 RMK A01 T01620145  RH  094%=      5-min Rain = 0.01
KPMS 161140Z 28005KT 16/15 A2993 RMK A01 T01620145  RH  094%=      5-min Rain = 0
KPMS 161145Z 29005KT 16/15 A2993 RMK A01 T01610145  RH  094%=      5-min Rain = 0
KPMS 161150Z 29005KT 16/14 A2993 RMK A01 T01610144  RH  094%=      5-min Rain = 0
KPMS 161155Z 30004KT 16/14 A2993 RMK A01 T01610144  RH  094%=      5-min Rain = 0
KPMS 161200Z 33005KT 16/14 A2992 RMK A01 T01610144  RH  094%=      5-min Rain = 0
KPMS 161205Z 33005KT 16/14 A2992 RMK A01 T01610144  RH  094%=      5-min Rain = 0
KPMS 161210Z 33005KT 16/14 A2993 RMK A01 T01610144  RH  094%=      5-min Rain = 0
KPMS 161215Z 28005KT 16/15 A2994 RMK A01 T01620145  RH  094%=      5-min Rain = 0
KPMS 161220Z 27005KT 16/15 A2994 RMK A01 T01630145  RH  093%=      5-min Rain = 0
KPMS 161225Z 29006KT 16/15 A2994 RMK A01 T01640145  RH  092%=      5-min Rain = 0
KPMS 161230Z 28007KT 16/15 A2995 RMK A01 T01640145  RH  092%=      5-min Rain = 0
KPMS 161235Z 27006KT 17/15 A2995 RMK A01 T01650145  RH  092%=      5-min Rain = 0
KPMS 161240Z 28006KT 17/14 A2995 RMK A01 T01660144  RH  091%=      5-min Rain = 0
KPMS 161245Z 29005KT 17/14 A2995 RMK A01 T01650143  RH  090%=      5-min Rain = 0
KPMS 161250Z 30006KT 17/14 A2995 RMK A01 T01650143  RH  091%=      5-min Rain = 0
KPMS 161255Z 30006KT 17/14 A2995 RMK A01 T01650143  RH  091%=      5-min Rain = 0
KPMS 161300Z 30007KT 17/14 A2996 RMK A01 T01650142  RH  090%=      5-min Rain = 0
KPMS 161305Z 31007KT 17/14 A2996 RMK A01 T01660141  RH  089%=      5-min Rain = 0
KPMS 161310Z 32008KT 17/14 A2997 RMK A01 T01660140  RH  088%=      5-min Rain = 0
KPMS 161315Z 00008KT 17/14 A2997 RMK A01 T01650141  RH  090%=      5-min Rain = 0
KPMS 161320Z 36005KT 16/14 A2998 RMK A01 T01630143  RH  092%=      5-min Rain = 0
KPMS 161325Z 36006KT 16/14 A2998 RMK A01 T01640142  RH  090%=      5-min Rain = 0
KPMS 161330Z 35006KT 16/14 A2999 RMK A01 T01640142  RH  090%=      5-min Rain = 0
KPMS 161335Z 35006KT 17/14 A30 RMK A01 T01650143  RH  091%=      5-min Rain = 0
KPMS 161340Z 35005KT 17/14 A30 RMK A01 T01650143  RH  091%=      5-min Rain = 0
KPMS 161345Z 00004KT 17/14 A30 RMK A01 T01650144  RH  091%=      5-min Rain = 0
KPMS 161350Z 36004KT 17/15 A30 RMK A01 T01650145  RH  092%=      5-min Rain = 0
KPMS 161355Z 35004KT 17/15 A30 RMK A01 T01650145  RH  092%=      5-min Rain = 0
KPMS 161400Z 34003KT 17/15 A30 RMK A01 T01660146  RH  092%=      5-min Rain = 0
KPMS 161405Z 34004KT 17/15 A30 RMK A01 T01670147  RH  092%=      5-min Rain = 0
KPMS 161410Z 33003KT 17/15 A30 RMK A01 T01680148  RH  092%=      5-min Rain = 0
KPMS 161415Z 33004KT 17/15 A3001 RMK A01 T01680148  RH  092%=      5-min Rain = 0
KPMS 161420Z 32005KT 17/15 A3001 RMK A01 T01690148  RH  091%=      5-min Rain = 0
KPMS 161425Z 32005KT 17/15 A3001 RMK A01 T01690148  RH  091%=      5-min Rain = 0
KPMS 161430Z 32005KT 17/15 A3001 RMK A01 T01690147  RH  091%=      5-min Rain = 0
KPMS 161435Z 31004KT 17/15 A3001 RMK A01 T01700147  RH  091%=      5-min Rain = 0
KPMS 161440Z 29003KT 17/15 A3001 RMK A01 T01710147  RH  090%=      5-min Rain = 0
KPMS 161445Z 30003KT 17/15 A3001 RMK A01 T01720147  RH  089%=      5-min Rain = 0
KPMS 161450Z 31004KT 17/15 A3001 RMK A01 T01730147  RH  088%=      5-min Rain = 0
KPMS 161455Z 31004KT 17/15 A3001 RMK A01 T01740147  RH  088%=      5-min Rain = 0
KPMS 161500Z 32005KT 18/15 A3001 RMK A01 T01760147  RH  087%=      5-min Rain = 0
KPMS 161505Z 30005KT 18/15 A3001 RMK A01 T01770147  RH  086%=      5-min Rain = 0
KPMS 161510Z 29005KT 18/15 A3001 RMK A01 T01780146  RH  085%=      5-min Rain = 0
KPMS 161515Z 30006KT 18/15 A3001 RMK A01 T01780145  RH  084%=      5-min Rain = 0
KPMS 161520Z 30006KT 18/15 A3001 RMK A01 T01790146  RH  085%=      5-min Rain = 0
KPMS 161525Z 30006KT 18/15 A3001 RMK A01 T01810146  RH  083%=      5-min Rain = 0
KPMS 161530Z 30006KT 18/15 A30 RMK A01 T01820145  RH  083%=      5-min Rain = 0
KPMS 161535Z 28005KT 18/15 A30 RMK A01 T01840146  RH  082%=      5-min Rain = 0
KPMS 161540Z 27006KT 19/15 A30 RMK A01 T01850145  RH  081%=      5-min Rain = 0
KPMS 161545Z 27006KT 19/15 A30 RMK A01 T01850145  RH  081%=      5-min Rain = 0
KPMS 161550Z 27005KT 19/15 A30 RMK A01 T01860147  RH  081%=      5-min Rain = 0
KPMS 161555Z 26005KT 19/15 A30 RMK A01 T01870146  RH  080%=      5-min Rain = 0
KPMS 161600Z 26006KT 19/15 A3001 RMK A01 T01860146  RH  081%=      5-min Rain = 0
KPMS 161605Z 26006KT 19/15 A3001 RMK A01 T01870145  RH  080%=      5-min Rain = 0
KPMS 161610Z 28005KT 19/15 A3001 RMK A01 T01880147  RH  081%=      5-min Rain = 0
KPMS 161615Z 27006KT 19/15 A3001 RMK A01 T01890148  RH  081%=      5-min Rain = 0
KPMS 161620Z 27006KT 19/15 A3001 RMK A01 T01900149  RH  080%=      5-min Rain = 0
KPMS 161625Z 27006KT 19/15 A3001 RMK A01 T01910149  RH  080%=      5-min Rain = 0
KPMS 161630Z 27006KT 19/15 A30 RMK A01 T01930148  RH  079%=      5-min Rain = 0
KPMS 161635Z 27005KT 19/15 A30 RMK A01 T01940151  RH  079%=      5-min Rain = 0
KPMS 161640Z 28005KT 20/15 A30 RMK A01 T01960151  RH  079%=      5-min Rain = 0
KPMS 161645Z 30006G11KT 20/15 A30 RMK A01 T01950148  RH  078%=      5-min Rain = 0
KPMS 161650Z 30006KT 20/15 A30 RMK A01 T01960150  RH  078%=      5-min Rain = 0
KPMS 161655Z 31007KT 20/15 A30 RMK A01 T01970150  RH  078%=      5-min Rain = 0
KPMS 161700Z 29007KT 20/15 A30 RMK A01 T01970150  RH  077%=      5-min Rain = 0
KPMS 161705Z 32008KT 20/15 A30 RMK A01 T01980151  RH  077%=      5-min Rain = 0
KPMS 161710Z 33007KT 20/15 A30 RMK A01 T01970149  RH  077%=      5-min Rain = 0
KPMS 161715Z 31006KT 20/15 A30 RMK A01 T01980150  RH  077%=      5-min Rain = 0
KPMS 161720Z 31008KT 20/15 A30 RMK A01 T01990151  RH  077%=      5-min Rain = 0
KPMS 161725Z 32007KT 20/15 A3001 RMK A01 T01980150  RH  077%=      5-min Rain = 0
KPMS 161730Z 32006KT 20/15 A30 RMK A01 T01980150  RH  077%=      5-min Rain = 0
KPMS 161735Z 30006KT 20/15 A30 RMK A01 T02020153  RH  077%=      5-min Rain = 0
KPMS 161740Z 31006KT 21/16 A30 RMK A01 T02070156  RH  076%=      5-min Rain = 0
KPMS 161745Z 33006KT 21/15 A30 RMK A01 T02070152  RH  074%=      5-min Rain = 0
KPMS 161750Z 30005KT 21/15 A30 RMK A01 T02090153  RH  074%=      5-min Rain = 0
KPMS 161755Z 31006KT 21/15 A30 RMK A01 T02100153  RH  073%=      5-min Rain = 0
KPMS 161800Z 30005KT 21/15 A30 RMK A01 T02100154  RH  073%=      5-min Rain = 0
KPMS 161805Z 31005KT 21/15 A30 RMK A01 T02100152  RH  073%=      5-min Rain = 0
KPMS 161810Z 31004KT 21/15 A30 RMK A01 T02110154  RH  073%=      5-min Rain = 0
KPMS 161815Z 32006KT 22/16 A30 RMK A01 T02150157  RH  073%=      5-min Rain = 0
KPMS 161820Z 31004G9KT 22/16 A2999 RMK A01 T02160156  RH  072%=      5-min Rain = 0
KPMS 161825Z 33007KT 22/16 A2999 RMK A01 T02180156  RH  071%=      5-min Rain = 0
KPMS 161830Z 32004KT 22/15 A2999 RMK A01 T02190154  RH  070%=      5-min Rain = 0
KPMS 161835Z 32004KT 22/16 A2999 RMK A01 T02200156  RH  070%=      5-min Rain = 0
KPMS 161840Z 31006KT 22/16 A2999 RMK A01 T02200156  RH  070%=      5-min Rain = 0
KPMS 161845Z 29004KT 22/15 A2999 RMK A01 T02180154  RH  070%=      5-min Rain = 0
KPMS 161850Z 32004KT 22/15 A2999 RMK A01 T02190154  RH  070%=      5-min Rain = 0
KPMS 161855Z 31006KT 22/16 A2999 RMK A01 T02210158  RH  071%=      5-min Rain = 0
KPMS 161900Z 31005KT 22/16 A2998 RMK A01 T02200159  RH  071%=      5-min Rain = 0
KPMS 161905Z 33006KT 22/16 A2998 RMK A01 T02230160  RH  071%=      5-min Rain = 0
KPMS 161910Z 32003KT 22/16 A2998 RMK A01 T02240158  RH  069%=      5-min Rain = 0
KPMS 161915Z 30004KT 23/16 A2998 RMK A01 T02250158  RH  069%=      5-min Rain = 0
KPMS 161920Z 32006KT 22/16 A2998 RMK A01 T02240160  RH  070%=      5-min Rain = 0
KPMS 161925Z 31006KT 22/16 A2997 RMK A01 T02240157  RH  069%=      5-min Rain = 0
KPMS 161930Z 31004KT 23/16 A2997 RMK A01 T02270161  RH  070%=      5-min Rain = 0
KPMS 161935Z 30004KT 23/16 A2997 RMK A01 T02280160  RH  069%=      5-min Rain = 0
KPMS 161940Z 30006KT 23/16 A2997 RMK A01 T02270160  RH  069%=      5-min Rain = 0
KPMS 161945Z 33007KT 23/16 A2997 RMK A01 T02260159  RH  069%=      5-min Rain = 0
KPMS 161950Z 32006KT 23/16 A2997 RMK A01 T02260159  RH  069%=      5-min Rain = 0
KPMS 161955Z 31005KT 23/16 A2997 RMK A01 T02260159  RH  069%=      5-min Rain = 0
KPMS 162000Z 31006KT 23/16 A2997 RMK A01 T02260158  RH  069%=      5-min Rain = 0
KPMS 162005Z 33005KT 23/16 A2997 RMK A01 T02260158  RH  068%=      5-min Rain = 0
KPMS 162010Z 30007KT 23/16 A2997 RMK A01 T02270158  RH  068%=      5-min Rain = 0
KPMS 162015Z 33006KT 23/15 A2997 RMK A01 T02270154  RH  066%=      5-min Rain = 0
KPMS 162020Z 34006KT 23/15 A2997 RMK A01 T02260153  RH  066%=      5-min Rain = 0
KPMS 162025Z 34004KT 23/15 A2997 RMK A01 T02270151  RH  065%=      5-min Rain = 0
KPMS 162030Z 33006KT 23/15 A2997 RMK A01 T02270153  RH  066%=      5-min Rain = 0
KPMS 162035Z 33005KT 23/16 A2997 RMK A01 T02280155  RH  067%=      5-min Rain = 0
KPMS 162040Z 36005KT 23/15 A2997 RMK A01 T02290153  RH  065%=      5-min Rain = 0
KPMS 162045Z 36005KT 23/15 A2997 RMK A01 T02300154  RH  065%=      5-min Rain = 0
KPMS 162050Z 36005KT 23/15 A2997 RMK A01 T02300153  RH  065%=      5-min Rain = 0
KPMS 162055Z 35005KT 23/15 A2997 RMK A01 T02300153  RH  065%=      5-min Rain = 0
KPMS 162100Z 35005KT 23/16 A2997 RMK A01 T02330160  RH  066%=      5-min Rain = 0
KPMS 162105Z 34005KT 23/16 A2996 RMK A01 T02320157  RH  066%=      5-min Rain = 0
KPMS 162110Z 01005KT 23/16 A2996 RMK A01 T02330156  RH  065%=      5-min Rain = 0
KPMS 162115Z 34006KT 24/16 A2996 RMK A01 T02350157  RH  065%=      5-min Rain = 0
KPMS 162120Z 33006KT 23/16 A2996 RMK A01 T02340157  RH  065%=      5-min Rain = 0
KPMS 162125Z 36006KT 24/16 A2996 RMK A01 T02350155  RH  064%=      5-min Rain = 0
KPMS 162130Z 34005KT 24/16 A2996 RMK A01 T02360155  RH  063%=      5-min Rain = 0
KPMS 162135Z 36004KT 24/16 A2996 RMK A01 T02360156  RH  064%=      5-min Rain = 0
KPMS 162140Z 34006KT 24/16 A2996 RMK A01 T02380158  RH  064%=      5-min Rain = 0
KPMS 162145Z 00003KT 24/16 A2996 RMK A01 T02410158  RH  063%=      5-min Rain = 0
KPMS 162150Z 35004G9KT 24/16 A2996 RMK A01 T02430159  RH  063%=      5-min Rain = 0
KPMS 162155Z 36004KT 24/16 A2995 RMK A01 T02420159  RH  063%=      5-min Rain = 0
KPMS 162200Z 00006KT 24/16 A2995 RMK A01 T02430161  RH  063%=      5-min Rain = 0
KPMS 162205Z 03005KT 25/16 A2995 RMK A01 T02460163  RH  063%=      5-min Rain = 0
KPMS 162210Z 01005G10KT 24/16 A2995 RMK A01 T02440160  RH  062%=      5-min Rain = 0
KPMS 162215Z 35007KT 24/16 A2995 RMK A01 T02430158  RH  062%=      5-min Rain = 0
KPMS 162220Z 02007KT 25/16 A2995 RMK A01 T02460162  RH  062%=      5-min Rain = 0
KPMS 162225Z 02008KT 25/16 A2995 RMK A01 T02480160  RH  061%=      5-min Rain = 0
KPMS 162230Z 02009KT 25/16 A2995 RMK A01 T02450156  RH  060%=      5-min Rain = 0
KPMS 162235Z 03009KT 25/16 A2995 RMK A01 T02450156  RH  060%=      5-min Rain = 0
KPMS 162240Z 03009KT 25/16 A2995 RMK A01 T02460156  RH  060%=      5-min Rain = 0
KPMS 162245Z 03008G13KT 25/15 A2995 RMK A01 T02470153  RH  058%=      5-min Rain = 0
KPMS 162250Z 03010KT 25/15 A2994 RMK A01 T02460151  RH  058%=      5-min Rain = 0
KPMS 162255Z 04008KT 25/15 A2994 RMK A01 T02480151  RH  058%=      5-min Rain = 0
KPMS 162300Z 06011KT 25/14 A2994 RMK A01 T02500142  RH  053%=      5-min Rain = 0
KPMS 162305Z 04007KT 25/14 A2994 RMK A01 T02470140  RH  053%=      5-min Rain = 0
KPMS 162310Z 05008KT 25/14 A2994 RMK A01 T02460138  RH  053%=      5-min Rain = 0
KPMS 162315Z 05008KT 25/15 A2994 RMK A01 T02480145  RH  055%=      5-min Rain = 0
KPMS 162320Z 06008KT 25/15 A2994 RMK A01 T02480145  RH  055%=      5-min Rain = 0
KPMS 162325Z 07009KT 25/14 A2994 RMK A01 T02510136  RH  051%=      5-min Rain = 0
KPMS 162330Z 09008KT 25/14 A2994 RMK A01 T02520139  RH  052%=      5-min Rain = 0
KPMS 162335Z 07009G14KT 25/15 A2994 RMK A01 T02510146  RH  054%=      5-min Rain = 0
KPMS 162340Z 06009KT 25/15 A2994 RMK A01 T02480146  RH  055%=      5-min Rain = 0
KPMS 162345Z 04008G13KT 25/15 A2994 RMK A01 T02470148  RH  057%=      5-min Rain = 0
KPMS 162350Z 07009KT 25/14 A2994 RMK A01 T02480137  RH  052%=      5-min Rain = 0
KPMS 162355Z 08008KT 25/13 A2995 RMK A01 T02490133  RH  051%=      5-min Rain = 0
KPMS 170000Z 06008G21KT 25/13 A2995 RMK A01 T02480133  RH  051%=      5-min Rain = 0
KPMS 170005Z 08008KT 25/13 A2995 RMK A01 T02470127  RH  049%=      5-min Rain = 0
KPMS 170010Z 08008KT 25/12 A2995 RMK A01 T02470123  RH  048%=      5-min Rain = 0
KPMS 170015Z 08010KT 25/13 A2994 RMK A01 T02460126  RH  049%=      5-min Rain = 0
KPMS 170020Z 07009KT 24/13 A2995 RMK A01 T02430132  RH  052%=      5-min Rain = 0
KPMS 170025Z 08007KT 24/13 A2995 RMK A01 T02420133  RH  053%=      5-min Rain = 0
KPMS 170030Z 08008KT 24/13 A2995 RMK A01 T02410132  RH  053%=      5-min Rain = 0
KPMS 170035Z 08008KT 24/13 A2995 RMK A01 T02400130  RH  052%=      5-min Rain = 0
KPMS 170040Z 09008KT 24/13 A2995 RMK A01 T02390126  RH  051%=      5-min Rain = 0
KPMS 170045Z 09008KT 24/13 A2995 RMK A01 T02370125  RH  052%=      5-min Rain = 0
KPMS 170050Z 09007KT 24/13 A2996 RMK A01 T02360132  RH  054%=      5-min Rain = 0
KPMS 170055Z 10006KT 24/13 A2996 RMK A01 T02350132  RH  055%=      5-min Rain = 0
KPMS 170100Z 10006KT 23/13 A2996 RMK A01 T02340134  RH  056%=      5-min Rain = 0
KPMS 170105Z 09006KT 23/14 A2996 RMK A01 T02330137  RH  057%=      5-min Rain = 0
KPMS 170110Z 09005KT 23/14 A2996 RMK A01 T02320140  RH  059%=      5-min Rain = 0
KPMS 170115Z 10008KT 23/15 A2996 RMK A01 T02280145  RH  062%=      5-min Rain = 0
KPMS 170120Z 10008KT 23/15 A2997 RMK A01 T02250148  RH  065%=      5-min Rain = 0
KPMS 170125Z 10008KT 22/15 A2997 RMK A01 T02220148  RH  066%=      5-min Rain = 0
KPMS 170130Z 10007KT 22/15 A2997 RMK A01 T02170149  RH  068%=      5-min Rain = 0
KPMS 170135Z 09007KT 21/15 A2997 RMK A01 T02100149  RH  071%=      5-min Rain = 0
KPMS 170140Z 09007KT 21/15 A2997 RMK A01 T02070149  RH  073%=      5-min Rain = 0
KPMS 170145Z 10007KT 20/15 A2997 RMK A01 T02040148  RH  074%=      5-min Rain = 0
KPMS 170150Z 10007KT 20/15 A2997 RMK A01 T01990148  RH  076%=      5-min Rain = 0
KPMS 170155Z 10006KT 19/15 A2997 RMK A01 T01940148  RH  078%=      5-min Rain = 0
KPMS 170200Z 10006KT 19/15 A2997 RMK A01 T01890147  RH  080%=      5-min Rain = 0
KPMS 170205Z 10007KT 18/15 A2997 RMK A01 T01840146  RH  082%=      5-min Rain = 0
KPMS 170210Z 10007KT 18/15 A2998 RMK A01 T01810146  RH  083%=      5-min Rain = 0
KPMS 170215Z 10007KT 18/15 A2998 RMK A01 T01790146  RH  085%=      5-min Rain = 0
KPMS 170220Z 10007KT 18/15 A2998 RMK A01 T01770145  RH  085%=      5-min Rain = 0
KPMS 170225Z 11007KT 18/15 A2998 RMK A01 T01770145  RH  085%=      5-min Rain = 0
KPMS 170230Z 12005KT 18/14 A2998 RMK A01 T01750144  RH  086%=      5-min Rain = 0
KPMS 170235Z 12005KT 18/15 A2998 RMK A01 T01750145  RH  086%=      5-min Rain = 0
KPMS 170240Z 12005KT 18/14 A2998 RMK A01 T01750144  RH  086%=      5-min Rain = 0
KPMS 170245Z 11005KT 17/14 A2998 RMK A01 T01730143  RH  086%=      5-min Rain = 0
KPMS 170250Z 11006KT 17/14 A2998 RMK A01 T01690141  RH  087%=      5-min Rain = 0
KPMS 170255Z 12005KT 17/14 A2999 RMK A01 T01670140  RH  088%=      5-min Rain = 0
KPMS 170300Z 11005KT 17/14 A2999 RMK A01 T01680141  RH  088%=      5-min Rain = 0
KPMS 170305Z 11005KT 17/14 A2999 RMK A01 T01670140  RH  088%=      5-min Rain = 0
KPMS 170310Z 11006KT 17/14 A2999 RMK A01 T01650139  RH  089%=      5-min Rain = 0
KPMS 170315Z 12006KT 16/14 A30 RMK A01 T01610136  RH  088%=      5-min Rain = 0
KPMS 170320Z 12005KT 16/14 A2999 RMK A01 T01610137  RH  090%=      5-min Rain = 0
KPMS 170325Z 11006KT 16/14 A30 RMK A01 T01600135  RH  088%=      5-min Rain = 0
KPMS 170330Z 12005KT 16/14 A2999 RMK A01 T01590135  RH  089%=      5-min Rain = 0
KPMS 170335Z 12004KT 16/14 A2999 RMK A01 T01620139  RH  090%=      5-min Rain = 0
KPMS 170340Z 12005KT 16/14 A2999 RMK A01 T01630136  RH  088%=      5-min Rain = 0
KPMS 170345Z 12005KT 16/14 A2999 RMK A01 T01600136  RH  089%=      5-min Rain = 0
KPMS 170350Z 12005KT 16/14 A2999 RMK A01 T01600136  RH  089%=      5-min Rain = 0
KPMS 170355Z 12005KT 16/14 A30 RMK A01 T01610136  RH  088%=      5-min Rain = 0
KPMS 170400Z 13004KT 16/14 A30 RMK A01 T01590135  RH  089%=      5-min Rain = 0
KPMS 170405Z 15004KT 16/14 A30 RMK A01 T01630138  RH  089%=      5-min Rain = 0
KPMS 170410Z 16004KT 17/14 A3001 RMK A01 T01700139  RH  086%=      5-min Rain = 0
KPMS 170415Z 17004KT 17/14 A3001 RMK A01 T01710139  RH  085%=      5-min Rain = 0
KPMS 170420Z 18003KT 17/14 A3001 RMK A01 T01700140  RH  086%=      5-min Rain = 0
KPMS 170425Z 17003KT 17/14 A3001 RMK A01 T01680141  RH  087%=      5-min Rain = 0
KPMS 170430Z 15004KT 17/14 A3002 RMK A01 T01660139  RH  088%=      5-min Rain = 0
KPMS 170435Z 14005KT 15/13 A3002 RMK A01 T01540129  RH  089%=      5-min Rain = 0
KPMS 170440Z 16005KT 15/13 A3002 RMK A01 T01510132  RH  092%=      5-min Rain = 0
KPMS 170445Z 17005KT 16/14 A3002 RMK A01 T01570137  RH  091%=      5-min Rain = 0
KPMS 170450Z 16005KT 15/13 A3003 RMK A01 T01540132  RH  090%=      5-min Rain = 0
KPMS 170455Z 16005KT 15/13 A3003 RMK A01 T01470127  RH  091%=      5-min Rain = 0

Page generated in 0.0097 seconds.